Terminal Aerodrome Forecast
Issued by NWS

Current Version | Previous Version | Text Only | Print | Product List | Glossary On
Versions: 1 2 3 4 5 6 7 8 9 10 11 12 13 14 15 16 17 18 19 20 21 22 23 24
000
FTUS44 KTSA 302200 AAB
TAFMLC
TAF AMD
KMLC 302205Z 3022/3118 32011KT P6SM BKN015
      TEMPO 3111/3115 BKN007
     FM311500 02006KT P6SM BKN015=

USA.gov is the U.S. government's official web portal to all federal, state and local government web resources and services.